createdAt,value
2019-05-21T00:01:04.069Z,5.25
2019-05-21T00:03:30.326Z,5.50
2019-05-21T00:05:56.566Z,5.53
2019-05-21T00:08:23.982Z,5.55
2019-05-21T00:10:50.322Z,4.92
2019-05-21T00:13:16.664Z,5.30
2019-05-21T00:15:43.054Z,5.15
2019-05-21T00:18:10.941Z,5.97
2019-05-21T00:20:37.431Z,5.47
2019-05-21T00:23:03.660Z,5.45
2019-05-21T00:25:36.066Z,5.37
2019-05-21T00:28:21.323Z,5.50
2019-05-21T00:31:25.231Z,5.22
2019-05-21T00:34:43.073Z,5.62
2019-05-21T00:37:34.517Z,5.45
2019-05-21T00:40:38.115Z,5.30
2019-05-21T00:43:05.494Z,5.03
2019-05-21T00:45:31.724Z,5.45
2019-05-21T00:47:57.988Z,5.62
2019-05-21T00:50:24.530Z,5.80
2019-05-21T00:52:50.823Z,5.67
2019-05-21T00:55:17.084Z,5.25
2019-05-21T00:57:43.462Z,6.05
2019-05-21T01:00:11.093Z,5.80
2019-05-21T01:02:37.503Z,5.87
2019-05-21T01:05:05.071Z,6.28
2019-05-21T01:07:31.297Z,5.92
2019-05-21T01:09:57.576Z,6.95
2019-05-21T01:12:23.845Z,6.65
2019-05-21T01:14:50.131Z,6.10
2019-05-21T01:17:16.471Z,5.67
2019-05-21T01:19:42.723Z,6.97
2019-05-21T01:22:09.100Z,6.92
2019-05-21T01:24:35.335Z,6.00
2019-05-21T01:27:01.683Z,6.30
2019-05-21T01:29:27.945Z,7.22
2019-05-21T01:31:54.168Z,7.30
2019-05-21T01:34:20.446Z,8.80
2019-05-21T01:36:46.798Z,8.70
2019-05-21T01:39:13.245Z,8.15
2019-05-21T01:41:39.511Z,9.43
2019-05-21T01:44:05.811Z,8.25
2019-05-21T01:46:32.191Z,7.95
2019-05-21T01:48:58.609Z,9.40
2019-05-21T01:51:25.011Z,9.20
2019-05-21T01:53:51.277Z,8.90
2019-05-21T01:56:17.642Z,10.08
2019-05-21T01:58:44.032Z,9.53
2019-05-21T02:01:10.321Z,10.55
2019-05-21T02:03:36.856Z,10.38
2019-05-21T02:06:03.186Z,11.18
2019-05-21T02:08:29.462Z,9.68
2019-05-21T02:10:55.965Z,10.15
2019-05-21T02:13:22.213Z,9.60
2019-05-21T02:15:48.457Z,11.00
2019-05-21T02:18:14.758Z,9.68
2019-05-21T02:20:40.963Z,9.85
2019-05-21T02:23:07.331Z,10.43
2019-05-21T02:25:33.593Z,9.63
2019-05-21T02:27:59.980Z,12.28
2019-05-21T02:30:26.324Z,10.50
2019-05-21T02:32:52.601Z,10.82
2019-05-21T02:35:18.876Z,10.58
2019-05-21T02:37:45.299Z,11.75
2019-05-21T02:40:12.355Z,11.30
2019-05-21T02:42:38.638Z,12.30
2019-05-21T02:45:05.850Z,11.18
2019-05-21T02:47:32.089Z,11.78
2019-05-21T02:49:58.514Z,11.05
2019-05-21T02:52:24.722Z,12.23
2019-05-21T02:54:51.637Z,11.40
2019-05-21T02:57:17.879Z,12.85
2019-05-21T02:59:46.024Z,11.38
2019-05-21T03:02:31.152Z,11.80
2019-05-21T03:04:57.591Z,11.88
2019-05-21T03:07:25.687Z,11.80
2019-05-21T03:09:52.324Z,11.50
2019-05-21T03:12:18.817Z,11.30
2019-05-21T03:14:45.665Z,12.37
2019-05-21T03:17:12.131Z,12.60
2019-05-21T03:19:38.462Z,13.62
2019-05-21T03:22:04.941Z,12.60
2019-05-21T03:24:31.446Z,12.78
2019-05-21T03:26:57.673Z,12.53
2019-05-21T03:29:24.252Z,14.07
2019-05-21T03:31:50.541Z,12.58
2019-05-21T03:34:16.886Z,14.65
2019-05-21T03:36:43.096Z,13.90
2019-05-21T03:39:09.371Z,14.05
2019-05-21T03:41:37.670Z,13.90
2019-05-21T03:44:04.019Z,13.45
2019-05-21T03:46:30.404Z,13.38
2019-05-21T03:48:56.639Z,14.10
2019-05-21T03:51:22.897Z,14.85
2019-05-21T03:53:49.168Z,14.33
2019-05-21T03:56:15.514Z,13.65
2019-05-21T03:58:41.917Z,16.93
2019-05-21T04:01:08.147Z,15.30
2019-05-21T04:03:34.447Z,14.25
2019-05-21T04:06:00.937Z,16.12
2019-05-21T04:08:27.188Z,15.03
2019-05-21T04:10:53.473Z,17.00
2019-05-21T04:13:19.731Z,16.62
2019-05-21T04:16:06.267Z,16.25
2019-05-21T04:18:49.758Z,17.82
2019-05-21T04:21:16.149Z,16.15
2019-05-21T04:23:42.369Z,17.07
2019-05-21T04:26:08.656Z,16.65
2019-05-21T04:28:34.969Z,18.32
2019-05-21T04:31:01.246Z,18.12
2019-05-21T04:33:27.468Z,16.57
2019-05-21T04:35:53.721Z,17.65
2019-05-21T04:38:20.007Z,17.07
2019-05-21T04:40:46.462Z,16.90
2019-05-21T04:43:12.835Z,18.10
2019-05-21T04:45:39.235Z,18.35
2019-05-21T04:48:05.570Z,18.98
2019-05-21T04:50:31.829Z,17.30
2019-05-21T04:52:58.089Z,17.40
2019-05-21T04:55:24.476Z,17.62
2019-05-21T04:57:50.805Z,19.05
2019-05-21T05:00:17.273Z,18.75
2019-05-21T05:02:43.545Z,20.27
2019-05-21T05:05:10.355Z,20.12
2019-05-21T05:07:36.633Z,17.92
2019-05-21T05:10:04.886Z,19.50
2019-05-21T05:12:31.171Z,20.10
2019-05-21T05:14:57.694Z,19.32
2019-05-21T05:17:24.050Z,20.70
2019-05-21T05:19:50.275Z,19.17
2019-05-21T05:22:16.521Z,20.65
2019-05-21T05:24:45.743Z,19.65
2019-05-21T05:27:14.052Z,19.77
2019-05-21T05:29:40.386Z,21.05
2019-05-21T05:32:06.845Z,20.00
2019-05-21T05:34:33.074Z,22.25
2019-05-21T05:36:59.337Z,19.57
2019-05-21T05:39:25.595Z,17.10
2019-05-21T05:41:51.883Z,16.05
2019-05-21T05:44:18.126Z,17.15
2019-05-21T05:46:44.403Z,13.98
2019-05-21T05:49:18.651Z,18.77
2019-05-21T05:51:45.068Z,14.45
2019-05-21T05:54:11.491Z,12.45
2019-05-21T05:56:37.878Z,16.67
2019-05-21T05:59:04.296Z,15.75
2019-05-21T06:01:32.423Z,17.55
2019-05-21T06:03:58.684Z,17.25
2019-05-21T06:06:25.132Z,18.20
2019-05-21T06:08:51.418Z,16.42
2019-05-21T06:11:17.932Z,16.02
2019-05-21T06:13:44.304Z,18.85
2019-05-21T06:16:10.572Z,24.43
2019-05-21T06:18:36.851Z,22.55
2019-05-21T06:21:03.188Z,20.05
2019-05-21T06:23:29.645Z,22.20
2019-05-21T06:25:56.001Z,21.20
2019-05-21T06:28:22.246Z,22.40
2019-05-21T06:30:48.586Z,25.52
2019-05-21T06:33:14.828Z,28.15
2019-05-21T06:35:41.083Z,23.95
2019-05-21T06:38:17.246Z,21.90
2019-05-21T06:40:38.476Z,25.12
2019-05-21T06:43:03.699Z,25.35
2019-05-21T06:45:30.129Z,22.93
2019-05-21T06:47:56.369Z,21.70
2019-05-21T06:50:22.625Z,27.90
2019-05-21T06:52:49.085Z,29.95
2019-05-21T06:55:15.626Z,26.68
2019-05-21T06:57:41.975Z,28.27
2019-05-21T07:00:08.846Z,29.15
2019-05-21T07:02:35.200Z,27.10
2019-05-21T07:05:03.077Z,30.25
2019-05-21T07:07:29.262Z,30.85
2019-05-21T07:09:55.563Z,31.85
2019-05-21T07:12:21.839Z,50.28
2019-05-21T07:14:48.499Z,32.83
2019-05-21T07:17:15.019Z,29.85
2019-05-21T07:19:41.368Z,30.82
2019-05-21T07:22:12.676Z,39.70
2019-05-21T07:24:36.606Z,33.58
2019-05-21T07:27:03.031Z,34.27
2019-05-21T07:29:29.287Z,36.60
2019-05-21T07:31:55.615Z,29.57
2019-05-21T07:34:21.884Z,29.80
2019-05-21T07:36:48.175Z,34.30
2019-05-21T07:39:14.554Z,29.55
2019-05-21T07:41:40.905Z,35.70
2019-05-21T07:44:07.197Z,31.15
2019-05-21T07:46:33.555Z,33.13
2019-05-21T07:48:59.795Z,30.52
2019-05-21T07:51:26.119Z,33.60
2019-05-21T07:53:52.763Z,28.05
2019-05-21T07:56:18.987Z,31.68
2019-05-21T07:58:45.374Z,32.20
2019-05-21T08:01:11.857Z,29.77
2019-05-21T08:03:38.165Z,27.42
2019-05-21T08:06:04.423Z,34.55
2019-05-21T08:08:30.701Z,29.82
2019-05-21T08:10:56.967Z,31.23
2019-05-21T08:13:23.311Z,40.17
2019-05-21T08:15:49.610Z,32.42
2019-05-21T08:18:15.887Z,30.32
2019-05-21T08:20:42.267Z,26.82
2019-05-21T08:23:08.503Z,26.12
2019-05-21T08:25:34.745Z,33.20
2019-05-21T08:28:01.231Z,33.50
2019-05-21T08:30:29.453Z,28.17
2019-05-21T08:32:55.857Z,29.40
2019-05-21T08:35:22.185Z,28.15
2019-05-21T08:37:48.877Z,28.90
2019-05-21T08:40:15.305Z,26.77
2019-05-21T08:42:41.664Z,29.75
2019-05-21T08:45:09.003Z,26.00
2019-05-21T08:47:35.348Z,30.00
2019-05-21T08:50:06.363Z,29.07
2019-05-21T08:52:32.884Z,26.02
2019-05-21T08:54:59.126Z,22.77
2019-05-21T08:57:25.509Z,22.62
2019-05-21T08:59:51.965Z,23.15
2019-05-21T09:02:18.605Z,21.97
2019-05-21T09:04:46.670Z,23.92
2019-05-21T09:07:14.397Z,29.23
2019-05-21T09:09:50.251Z,23.57
2019-05-21T09:12:09.472Z,26.35
2019-05-21T09:14:35.872Z,30.77
2019-05-21T09:17:02.256Z,28.15
2019-05-21T09:19:28.741Z,30.72
2019-05-21T09:21:55.365Z,28.75
2019-05-21T09:24:21.803Z,30.48
2019-05-21T09:26:48.258Z,32.42
2019-05-21T09:29:14.632Z,37.93
2019-05-21T09:31:40.983Z,31.68
2019-05-21T09:34:07.458Z,33.25
2019-05-21T09:36:33.852Z,31.95
2019-05-21T09:39:00.107Z,30.45
2019-05-21T09:41:26.476Z,27.10
2019-05-21T09:43:52.769Z,31.55
2019-05-21T09:46:21.567Z,28.45
2019-05-21T09:48:48.024Z,32.35
2019-05-21T09:51:19.775Z,29.90
2019-05-21T09:53:42.462Z,30.62
2019-05-21T09:56:27.214Z,30.12
2019-05-21T09:58:55.399Z,25.92
2019-05-21T10:01:23.682Z,29.80
2019-05-21T10:03:55.040Z,26.75
2019-05-21T10:06:21.424Z,26.42
2019-05-21T10:08:48.059Z,26.33
2019-05-21T10:11:14.532Z,28.57
2019-05-21T10:13:40.967Z,25.43
2019-05-21T10:16:07.322Z,27.60
2019-05-21T10:18:33.569Z,24.23
2019-05-21T10:20:59.953Z,24.30
2019-05-21T10:23:26.449Z,26.30
2019-05-21T10:25:52.856Z,27.45
2019-05-21T10:28:19.131Z,26.45
2019-05-21T10:30:45.480Z,26.52
2019-05-21T10:33:11.966Z,25.40
2019-05-21T10:35:38.368Z,27.50
2019-05-21T10:38:04.912Z,27.70
2019-05-21T10:40:31.276Z,26.55
2019-05-21T10:42:57.571Z,21.77
2019-05-21T10:45:24.074Z,24.25
2019-05-21T10:47:50.313Z,24.65
2019-05-21T10:50:16.751Z,27.10
2019-05-21T10:52:43.270Z,25.25
2019-05-21T10:55:11.633Z,24.80
2019-05-21T10:57:37.935Z,26.62
2019-05-21T11:00:08.989Z,25.15
2019-05-21T11:02:37.059Z,25.75
2019-05-21T11:05:07.444Z,26.45
2019-05-21T11:07:34.035Z,27.95
2019-05-21T11:10:00.629Z,25.40
2019-05-21T11:12:26.923Z,27.75
2019-05-21T11:14:53.270Z,27.32
2019-05-21T11:17:20.307Z,24.27
2019-05-21T11:19:46.798Z,24.92
2019-05-21T11:22:13.050Z,28.47
2019-05-21T11:24:39.324Z,27.20
2019-05-21T11:27:06.194Z,23.90
2019-05-21T11:29:32.696Z,27.22
2019-05-21T11:31:58.966Z,26.55
2019-05-21T11:34:25.312Z,23.57
2019-05-21T11:36:52.689Z,27.13
2019-05-21T11:39:19.112Z,26.25
2019-05-21T11:41:45.385Z,27.52
2019-05-21T11:44:15.061Z,26.68
2019-05-21T11:46:41.423Z,22.13
2019-05-21T11:49:07.809Z,26.23
2019-05-21T11:51:34.071Z,28.32
2019-05-21T11:54:00.405Z,25.25
2019-05-21T11:56:26.738Z,26.45
2019-05-21T11:58:53.003Z,28.47
2019-05-21T12:01:19.402Z,29.10
2019-05-21T12:03:45.736Z,24.32
2019-05-21T12:06:12.259Z,26.82
2019-05-21T12:08:38.639Z,22.75
2019-05-21T12:11:05.064Z,26.07
2019-05-21T12:13:31.309Z,27.67
2019-05-21T12:15:57.576Z,26.12
2019-05-21T12:18:23.922Z,28.07
2019-05-21T12:20:50.162Z,23.83
2019-05-21T12:23:16.524Z,27.07
2019-05-21T12:25:43.058Z,24.35
2019-05-21T12:28:11.338Z,28.45
2019-05-21T12:30:37.691Z,26.17
2019-05-21T12:33:04.239Z,24.67
2019-05-21T12:35:30.566Z,25.88
2019-05-21T12:37:57.336Z,28.35
2019-05-21T12:40:23.781Z,26.23
2019-05-21T12:42:50.319Z,27.87
2019-05-21T12:45:16.862Z,27.93
2019-05-21T12:47:43.280Z,30.48
2019-05-21T12:50:10.157Z,33.45
2019-05-21T12:52:36.616Z,29.77
2019-05-21T12:55:06.521Z,31.90
2019-05-21T12:57:32.990Z,34.90
2019-05-21T12:59:59.391Z,34.53
2019-05-21T13:02:26.061Z,33.10
2019-05-21T13:04:52.284Z,36.80
2019-05-21T13:07:18.573Z,35.15
2019-05-21T13:09:44.966Z,31.00
2019-05-21T13:12:11.347Z,35.40
2019-05-21T13:14:37.770Z,30.23
2019-05-21T13:17:04.178Z,32.33
2019-05-21T13:19:30.605Z,33.78
2019-05-21T13:21:56.982Z,30.30
2019-05-21T13:24:23.297Z,29.50
2019-05-21T13:26:49.688Z,33.80
2019-05-21T13:29:16.128Z,30.02
2019-05-21T13:31:42.550Z,28.42
2019-05-21T13:34:08.793Z,28.17
2019-05-21T13:36:35.123Z,32.28
2019-05-21T13:39:01.472Z,34.53
2019-05-21T13:41:27.878Z,38.60
2019-05-21T13:43:54.131Z,35.92
2019-05-21T13:46:20.576Z,40.17
2019-05-21T13:48:47.304Z,37.35
2019-05-21T13:51:14.790Z,35.83
2019-05-21T13:53:41.033Z,53.42
2019-05-21T13:56:07.396Z,37.05
2019-05-21T13:58:34.163Z,39.08
2019-05-21T14:01:01.194Z,38.20
2019-05-21T14:03:27.517Z,37.78
2019-05-21T14:05:54.478Z,36.30
2019-05-21T14:08:20.871Z,31.87
2019-05-21T14:10:47.200Z,39.23
2019-05-21T14:13:13.469Z,30.43
2019-05-21T14:15:39.701Z,32.48
2019-05-21T14:18:06.296Z,27.37
2019-05-21T14:20:32.640Z,34.23
2019-05-21T14:22:59.175Z,30.27
2019-05-21T14:25:25.417Z,32.30
2019-05-21T14:27:51.850Z,34.45
2019-05-21T14:30:18.329Z,34.63
2019-05-21T14:32:44.654Z,30.37
2019-05-21T14:35:11.140Z,34.73
2019-05-21T14:37:37.492Z,33.05
2019-05-21T14:40:07.710Z,36.20
2019-05-21T14:42:34.094Z,32.65
2019-05-21T14:45:00.946Z,37.23
2019-05-21T14:47:27.557Z,35.58
2019-05-21T14:49:54.805Z,29.80
2019-05-21T14:52:21.366Z,33.55
2019-05-21T14:54:47.697Z,31.57
2019-05-21T14:57:14.097Z,35.30
2019-05-21T14:59:41.035Z,32.00
2019-05-21T15:02:07.704Z,29.23
2019-05-21T15:04:36.069Z,37.13
2019-05-21T15:07:03.011Z,24.67
2019-05-21T15:09:29.378Z,34.58
2019-05-21T15:11:56.050Z,37.65
2019-05-21T15:14:22.577Z,36.45
2019-05-21T15:16:48.953Z,38.13
2019-05-21T15:19:16.022Z,40.50
2019-05-21T15:21:44.445Z,37.15
2019-05-21T15:24:11.018Z,30.52
2019-05-21T15:26:37.773Z,28.60
2019-05-21T15:29:04.231Z,26.40
2019-05-21T15:31:30.814Z,29.37
2019-05-21T15:33:57.302Z,36.58
2019-05-21T15:36:23.680Z,32.05
2019-05-21T15:38:51.151Z,27.98
2019-05-21T15:41:17.849Z,27.98
2019-05-21T15:43:44.240Z,26.95
2019-05-21T15:46:10.689Z,21.97
2019-05-21T15:48:37.638Z,28.07
2019-05-21T15:51:04.249Z,24.52
2019-05-21T15:53:30.553Z,24.00
2019-05-21T15:55:56.910Z,16.87
2019-05-21T15:58:26.733Z,14.80
2019-05-21T16:00:52.129Z,17.07
2019-05-21T16:03:18.627Z,16.85
2019-05-21T16:05:45.114Z,13.43
2019-05-21T16:08:11.493Z,14.60
2019-05-21T16:10:38.105Z,17.20
2019-05-21T16:13:04.584Z,16.32
2019-05-21T16:15:31.355Z,20.08
2019-05-21T16:17:57.943Z,18.73
2019-05-21T16:20:24.422Z,18.80
2019-05-21T16:22:50.922Z,20.77
2019-05-21T16:25:17.676Z,17.23
2019-05-21T16:27:43.978Z,18.23
2019-05-21T16:30:10.476Z,21.50
2019-05-21T16:32:37.133Z,18.87
2019-05-21T16:35:06.633Z,19.45
2019-05-21T16:37:33.011Z,17.87
2019-05-21T16:40:01.304Z,18.45
2019-05-21T16:42:27.554Z,18.45
2019-05-21T16:44:53.859Z,18.60
2019-05-21T16:47:22.233Z,17.57
2019-05-21T16:49:48.696Z,16.75
2019-05-21T16:52:14.993Z,17.57
2019-05-21T16:54:41.357Z,21.30
2019-05-21T16:57:11.767Z,16.48
2019-05-21T16:59:38.282Z,25.25
2019-05-21T17:02:04.999Z,17.65
2019-05-21T17:04:31.417Z,19.02
2019-05-21T17:06:57.823Z,16.62
2019-05-21T17:09:28.149Z,16.80
2019-05-21T17:11:59.850Z,18.25
2019-05-21T17:14:25.308Z,17.92
2019-05-21T17:16:51.811Z,19.10
2019-05-21T17:19:18.234Z,18.57
2019-05-21T17:21:44.745Z,40.88
2019-05-21T17:24:11.252Z,23.67
2019-05-21T17:26:37.503Z,29.72
2019-05-21T17:29:04.108Z,36.80
2019-05-21T17:31:30.461Z,31.62
2019-05-21T17:33:56.831Z,30.48
2019-05-21T17:36:23.129Z,32.05
2019-05-21T17:38:49.433Z,30.52
2019-05-21T17:41:15.981Z,32.15
2019-05-21T17:43:42.362Z,28.52
2019-05-21T17:46:08.923Z,30.40
2019-05-21T17:48:35.584Z,29.90
2019-05-21T17:51:01.986Z,31.45
2019-05-21T17:53:28.750Z,30.02
2019-05-21T17:55:55.009Z,25.72
2019-05-21T17:58:21.599Z,30.00
2019-05-21T18:00:50.158Z,30.82
2019-05-21T18:03:16.917Z,32.08
2019-05-21T18:05:44.704Z,26.97
2019-05-21T18:08:11.276Z,25.00
2019-05-21T18:10:37.664Z,34.48
2019-05-21T18:13:04.170Z,35.35
2019-05-21T18:15:30.728Z,28.75
2019-05-21T18:17:57.483Z,31.17
2019-05-21T18:20:24.311Z,32.83
2019-05-21T18:22:51.343Z,26.17
2019-05-21T18:25:18.244Z,31.97
2019-05-21T18:27:46.728Z,32.73
2019-05-21T18:30:17.691Z,33.63
2019-05-21T18:32:44.354Z,26.55
2019-05-21T18:35:11.041Z,28.23
2019-05-21T18:37:37.542Z,24.37
2019-05-21T18:40:06.422Z,24.82
2019-05-21T18:42:32.818Z,23.87
2019-05-21T18:44:59.195Z,22.42
2019-05-21T18:47:25.606Z,25.77
2019-05-21T18:49:52.077Z,22.82
2019-05-21T18:52:18.815Z,21.48
2019-05-21T18:54:47.841Z,25.88
2019-05-21T18:57:13.886Z,25.23
2019-05-21T18:59:40.184Z,26.62
2019-05-21T19:02:09.204Z,25.50
2019-05-21T19:04:37.434Z,27.42
2019-05-21T19:07:05.868Z,23.25
2019-05-21T19:09:32.214Z,31.82
2019-05-21T19:11:58.718Z,22.77
2019-05-21T19:14:25.075Z,25.48
2019-05-21T19:16:51.602Z,21.82
2019-05-21T19:19:18.124Z,23.73
2019-05-21T19:21:46.342Z,24.45
2019-05-21T19:24:12.791Z,28.00
2019-05-21T19:26:39.744Z,28.38
2019-05-21T19:29:07.885Z,23.42
2019-05-21T19:31:34.441Z,20.32
2019-05-21T19:34:02.643Z,19.95
2019-05-21T19:36:29.675Z,22.87
2019-05-21T19:38:58.333Z,17.48
2019-05-21T19:41:25.070Z,21.85
2019-05-21T19:43:51.588Z,22.55
2019-05-21T19:46:17.882Z,17.40
2019-05-21T19:48:44.477Z,18.57
2019-05-21T19:51:11.422Z,23.85
2019-05-21T19:53:38.776Z,21.05
2019-05-21T19:56:05.371Z,18.70
2019-05-21T19:58:31.885Z,23.38
2019-05-21T20:00:58.586Z,19.02
2019-05-21T20:03:25.813Z,20.37
2019-05-21T20:05:52.288Z,18.60
2019-05-21T20:08:18.780Z,21.87
2019-05-21T20:10:45.637Z,27.85
2019-05-21T20:13:12.575Z,28.55
2019-05-21T20:15:39.591Z,23.02
2019-05-21T20:18:07.654Z,30.62
2019-05-21T20:20:36.706Z,20.68
2019-05-21T20:23:08.145Z,29.07
2019-05-21T20:25:34.421Z,29.05
2019-05-21T20:28:01.198Z,28.98
2019-05-21T20:30:27.856Z,25.85
2019-05-21T20:32:56.915Z,22.75
2019-05-21T20:35:26.814Z,23.87
2019-05-21T20:37:55.275Z,26.05
2019-05-21T20:40:23.951Z,25.52
2019-05-21T20:42:52.250Z,28.95
2019-05-21T20:45:21.533Z,23.35
2019-05-21T20:47:51.178Z,21.97
2019-05-21T20:50:20.971Z,25.40
2019-05-21T20:52:50.554Z,24.25
2019-05-21T20:55:19.064Z,18.48
2019-05-21T20:57:46.393Z,22.00
2019-05-21T21:00:16.653Z,20.68
2019-05-21T21:02:43.923Z,23.62
2019-05-21T21:05:11.571Z,21.07
2019-05-21T21:07:41.368Z,19.05
2019-05-21T21:10:09.072Z,24.12
2019-05-21T21:12:37.901Z,26.17
2019-05-21T21:15:06.020Z,19.07
2019-05-21T21:17:32.737Z,19.27
2019-05-21T21:19:59.184Z,24.32
2019-05-21T21:22:25.708Z,25.30
2019-05-21T21:24:51.987Z,19.90
2019-05-21T21:27:18.774Z,24.77
2019-05-21T21:29:45.207Z,19.40
2019-05-21T21:32:11.774Z,20.08
2019-05-21T21:34:38.436Z,26.15
2019-05-21T21:37:05.140Z,22.93
2019-05-21T21:39:32.039Z,18.67
2019-05-21T21:41:58.904Z,22.55
2019-05-21T21:44:33.717Z,19.05
2019-05-21T21:46:53.919Z,19.40
2019-05-21T21:49:20.154Z,19.15
2019-05-21T21:51:47.193Z,13.75
2019-05-21T21:54:13.981Z,12.93
2019-05-21T21:56:40.264Z,18.02
2019-05-21T21:59:06.819Z,19.02
2019-05-21T22:01:51.450Z,16.23
2019-05-21T22:04:21.187Z,19.45
2019-05-21T22:06:49.042Z,18.15
2019-05-21T22:09:17.280Z,15.23
2019-05-21T22:11:44.847Z,20.25
2019-05-21T22:14:12.117Z,17.10
2019-05-21T22:16:39.178Z,14.60
2019-05-21T22:19:06.059Z,16.57
2019-05-21T22:21:33.160Z,18.70
2019-05-21T22:23:59.393Z,18.70
2019-05-21T22:26:26.029Z,21.90
2019-05-21T22:28:52.350Z,22.48
2019-05-21T22:31:18.833Z,18.40
2019-05-21T22:33:45.109Z,16.87
2019-05-21T22:36:11.809Z,18.23
2019-05-21T22:38:38.133Z,20.32
2019-05-21T22:41:04.494Z,22.90
2019-05-21T22:43:30.961Z,22.93
2019-05-21T22:45:57.214Z,25.08
2019-05-21T22:48:23.592Z,23.15
2019-05-21T22:50:50.133Z,18.82
2019-05-21T22:53:16.475Z,27.27
2019-05-21T22:55:42.809Z,17.67
2019-05-21T22:58:09.098Z,22.00
2019-05-21T23:00:35.368Z,23.95
2019-05-21T23:03:01.906Z,24.55
2019-05-21T23:05:28.176Z,31.68
2019-05-21T23:07:54.520Z,26.27
2019-05-21T23:10:21.106Z,22.85
2019-05-21T23:12:47.486Z,30.70
2019-05-21T23:15:24.284Z,29.77
2019-05-21T23:17:43.343Z,28.20
2019-05-21T23:20:11.785Z,25.85
2019-05-21T23:22:39.337Z,29.30
2019-05-21T23:25:06.093Z,27.58
2019-05-21T23:27:32.767Z,27.48
2019-05-21T23:29:59.602Z,28.05
2019-05-21T23:32:27.056Z,24.90
2019-05-21T23:34:53.608Z,33.25
2019-05-21T23:37:20.663Z,24.92
2019-05-21T23:39:49.132Z,33.42
2019-05-21T23:42:28.626Z,25.92
2019-05-21T23:44:44.928Z,29.50
2019-05-21T23:47:12.795Z,25.62
2019-05-21T23:49:41.413Z,27.85
2019-05-21T23:52:08.181Z,25.90
2019-05-21T23:54:34.429Z,26.37
2019-05-21T23:57:02.479Z,22.10
2019-05-21T23:59:28.751Z,28.17
